sensor_id;sensor_type;location;lat;lon;timestamp;P1;durP1;ratioP1;P2;durP2;ratioP2
50249;SDS011;36133;42.522;27.456;2022-07-10T00:00:38;10.13;;;4.32;;
50249;SDS011;36133;42.522;27.456;2022-07-10T00:03:04;8.68;;;4.75;;
50249;SDS011;36133;42.522;27.456;2022-07-10T00:05:30;8.73;;;4.72;;
50249;SDS011;36133;42.522;27.456;2022-07-10T00:07:56;6.20;;;4.50;;
50249;SDS011;36133;42.522;27.456;2022-07-10T00:10:22;9.98;;;5.18;;
50249;SDS011;36133;42.522;27.456;2022-07-10T00:12:49;7.35;;;4.40;;
50249;SDS011;36133;42.522;27.456;2022-07-10T00:15:16;6.75;;;4.55;;
50249;SDS011;36133;42.522;27.456;2022-07-10T00:17:43;9.73;;;4.20;;
50249;SDS011;36133;42.522;27.456;2022-07-10T00:20:09;6.05;;;4.47;;
50249;SDS011;36133;42.522;27.456;2022-07-10T00:22:37;7.57;;;4.93;;
50249;SDS011;36133;42.522;27.456;2022-07-10T00:25:06;6.03;;;3.70;;
50249;SDS011;36133;42.522;27.456;2022-07-10T00:27:34;5.18;;;4.13;;
50249;SDS011;36133;42.522;27.456;2022-07-10T00:29:59;7.43;;;4.35;;
50249;SDS011;36133;42.522;27.456;2022-07-10T00:32:26;6.38;;;4.20;;
50249;SDS011;36133;42.522;27.456;2022-07-10T00:34:52;9.52;;;4.43;;
50249;SDS011;36133;42.522;27.456;2022-07-10T00:37:18;23.15;;;5.97;;
50249;SDS011;36133;42.522;27.456;2022-07-10T00:39:46;15.05;;;5.30;;
50249;SDS011;36133;42.522;27.456;2022-07-10T00:42:12;13.40;;;4.80;;
50249;SDS011;36133;42.522;27.456;2022-07-10T00:44:39;6.07;;;4.57;;
50249;SDS011;36133;42.522;27.456;2022-07-10T00:47:08;5.60;;;4.20;;
50249;SDS011;36133;42.522;27.456;2022-07-10T00:49:35;6.32;;;4.85;;
50249;SDS011;36133;42.522;27.456;2022-07-10T00:52:03;6.53;;;5.03;;
50249;SDS011;36133;42.522;27.456;2022-07-10T00:54:33;9.07;;;5.18;;
50249;SDS011;36133;42.522;27.456;2022-07-10T00:56:59;8.68;;;5.07;;
50249;SDS011;36133;42.522;27.456;2022-07-10T00:59:28;8.10;;;4.70;;
50249;SDS011;36133;42.522;27.456;2022-07-10T01:01:54;6.10;;;4.78;;
50249;SDS011;36133;42.522;27.456;2022-07-10T01:04:20;8.75;;;5.07;;
50249;SDS011;36133;42.522;27.456;2022-07-10T01:06:46;7.72;;;5.32;;
50249;SDS011;36133;42.522;27.456;2022-07-10T01:09:12;6.00;;;4.93;;
50249;SDS011;36133;42.522;27.456;2022-07-10T01:11:37;8.07;;;4.85;;
50249;SDS011;36133;42.522;27.456;2022-07-10T01:14:03;6.80;;;5.00;;
50249;SDS011;36133;42.522;27.456;2022-07-10T01:16:32;7.47;;;5.20;;
50249;SDS011;36133;42.522;27.456;2022-07-10T01:18:59;7.65;;;4.15;;
50249;SDS011;36133;42.522;27.456;2022-07-10T01:23:57;8.43;;;5.25;;
50249;SDS011;36133;42.522;27.456;2022-07-10T01:26:24;6.55;;;4.93;;
50249;SDS011;36133;42.522;27.456;2022-07-10T01:28:50;11.05;;;5.38;;
50249;SDS011;36133;42.522;27.456;2022-07-10T01:31:17;11.15;;;5.50;;
50249;SDS011;36133;42.522;27.456;2022-07-10T01:33:44;7.90;;;5.00;;
50249;SDS011;36133;42.522;27.456;2022-07-10T01:36:10;13.05;;;6.15;;
50249;SDS011;36133;42.522;27.456;2022-07-10T01:38:37;9.00;;;5.43;;
50249;SDS011;36133;42.522;27.456;2022-07-10T01:41:02;8.57;;;5.43;;
50249;SDS011;36133;42.522;27.456;2022-07-10T01:43:28;8.10;;;5.40;;
50249;SDS011;36133;42.522;27.456;2022-07-10T01:45:53;6.20;;;4.80;;
50249;SDS011;36133;42.522;27.456;2022-07-10T01:48:19;10.52;;;5.57;;
50249;SDS011;36133;42.522;27.456;2022-07-10T01:50:44;8.45;;;5.30;;
50249;SDS011;36133;42.522;27.456;2022-07-10T01:53:10;7.75;;;4.97;;
50249;SDS011;36133;42.522;27.456;2022-07-10T01:55:36;6.25;;;4.95;;
50249;SDS011;36133;42.522;27.456;2022-07-10T01:58:01;10.85;;;5.25;;
50249;SDS011;36133;42.522;27.456;2022-07-10T02:00:27;8.95;;;4.60;;
50249;SDS011;36133;42.522;27.456;2022-07-10T02:02:53;7.80;;;5.30;;
50249;SDS011;36133;42.522;27.456;2022-07-10T02:05:37;4.50;;;4.00;;
50249;SDS011;36133;42.522;27.456;2022-07-10T02:08:02;6.18;;;4.95;;
50249;SDS011;36133;42.522;27.456;2022-07-10T02:10:28;10.18;;;4.70;;
50249;SDS011;36133;42.522;27.456;2022-07-10T02:12:54;7.35;;;4.75;;
50249;SDS011;36133;42.522;27.456;2022-07-10T02:15:21;6.55;;;4.80;;
50249;SDS011;36133;42.522;27.456;2022-07-10T02:17:47;5.82;;;4.78;;
50249;SDS011;36133;42.522;27.456;2022-07-10T02:20:12;8.50;;;5.60;;
50249;SDS011;36133;42.522;27.456;2022-07-10T02:22:38;9.95;;;5.40;;
50249;SDS011;36133;42.522;27.456;2022-07-10T02:25:04;10.45;;;5.53;;
50249;SDS011;36133;42.522;27.456;2022-07-10T02:27:30;7.70;;;5.60;;
50249;SDS011;36133;42.522;27.456;2022-07-10T02:29:55;6.35;;;5.55;;
50249;SDS011;36133;42.522;27.456;2022-07-10T02:32:21;5.78;;;4.82;;
50249;SDS011;36133;42.522;27.456;2022-07-10T02:34:47;6.70;;;5.53;;
50249;SDS011;36133;42.522;27.456;2022-07-10T02:37:12;9.43;;;6.55;;
50249;SDS011;36133;42.522;27.456;2022-07-10T02:39:38;9.90;;;5.82;;
50249;SDS011;36133;42.522;27.456;2022-07-10T02:42:03;7.55;;;5.13;;
50249;SDS011;36133;42.522;27.456;2022-07-10T02:44:29;8.77;;;5.47;;
50249;SDS011;36133;42.522;27.456;2022-07-10T02:46:55;10.52;;;5.15;;
50249;SDS011;36133;42.522;27.456;2022-07-10T02:49:20;7.57;;;5.35;;
50249;SDS011;36133;42.522;27.456;2022-07-10T02:51:46;8.68;;;5.47;;
50249;SDS011;36133;42.522;27.456;2022-07-10T02:54:11;7.63;;;5.90;;
50249;SDS011;36133;42.522;27.456;2022-07-10T02:56:37;9.02;;;5.72;;
50249;SDS011;36133;42.522;27.456;2022-07-10T02:59:02;7.93;;;5.82;;
50249;SDS011;36133;42.522;27.456;2022-07-10T03:01:28;8.10;;;5.97;;
50249;SDS011;36133;42.522;27.456;2022-07-10T03:03:54;11.13;;;6.32;;
50249;SDS011;36133;42.522;27.456;2022-07-10T03:06:19;9.70;;;6.28;;
50249;SDS011;36133;42.522;27.456;2022-07-10T03:08:45;11.77;;;7.07;;
50249;SDS011;36133;42.522;27.456;2022-07-10T03:11:10;7.00;;;5.90;;
50249;SDS011;36133;42.522;27.456;2022-07-10T03:13:36;7.22;;;6.30;;
50249;SDS011;36133;42.522;27.456;2022-07-10T03:16:01;7.78;;;6.30;;
50249;SDS011;36133;42.522;27.456;2022-07-10T03:18:27;7.32;;;6.05;;
50249;SDS011;36133;42.522;27.456;2022-07-10T03:20:53;8.93;;;6.25;;
50249;SDS011;36133;42.522;27.456;2022-07-10T03:23:19;6.28;;;5.40;;
50249;SDS011;36133;42.522;27.456;2022-07-10T03:25:44;8.30;;;5.78;;
50249;SDS011;36133;42.522;27.456;2022-07-10T03:28:10;11.40;;;7.10;;
50249;SDS011;36133;42.522;27.456;2022-07-10T03:30:36;9.55;;;6.25;;
50249;SDS011;36133;42.522;27.456;2022-07-10T03:33:01;8.30;;;6.13;;
50249;SDS011;36133;42.522;27.456;2022-07-10T03:35:28;12.05;;;6.60;;
50249;SDS011;36133;42.522;27.456;2022-07-10T03:37:56;10.45;;;5.65;;
50249;SDS011;36133;42.522;27.456;2022-07-10T03:40:22;6.97;;;6.03;;
50249;SDS011;36133;42.522;27.456;2022-07-10T03:42:47;10.15;;;5.65;;
50249;SDS011;36133;42.522;27.456;2022-07-10T03:45:13;9.77;;;5.70;;
50249;SDS011;36133;42.522;27.456;2022-07-10T03:47:38;9.05;;;5.88;;
50249;SDS011;36133;42.522;27.456;2022-07-10T03:50:04;8.65;;;5.30;;
50249;SDS011;36133;42.522;27.456;2022-07-10T03:52:30;8.02;;;6.15;;
50249;SDS011;36133;42.522;27.456;2022-07-10T03:54:56;9.68;;;6.03;;
50249;SDS011;36133;42.522;27.456;2022-07-10T03:57:22;7.28;;;4.97;;
50249;SDS011;36133;42.522;27.456;2022-07-10T04:00:06;9.10;;;6.07;;
50249;SDS011;36133;42.522;27.456;2022-07-10T04:02:32;9.70;;;5.97;;
50249;SDS011;36133;42.522;27.456;2022-07-10T04:04:59;9.93;;;5.90;;
50249;SDS011;36133;42.522;27.456;2022-07-10T04:07:24;6.85;;;5.63;;
50249;SDS011;36133;42.522;27.456;2022-07-10T04:09:50;10.10;;;5.68;;
50249;SDS011;36133;42.522;27.456;2022-07-10T04:12:15;9.15;;;5.95;;
50249;SDS011;36133;42.522;27.456;2022-07-10T04:14:41;9.98;;;6.05;;
50249;SDS011;36133;42.522;27.456;2022-07-10T04:17:06;9.73;;;5.72;;
50249;SDS011;36133;42.522;27.456;2022-07-10T04:19:32;6.57;;;5.38;;
50249;SDS011;36133;42.522;27.456;2022-07-10T04:21:58;8.15;;;5.35;;
50249;SDS011;36133;42.522;27.456;2022-07-10T04:24:23;10.38;;;5.32;;
50249;SDS011;36133;42.522;27.456;2022-07-10T04:26:49;6.03;;;5.35;;
50249;SDS011;36133;42.522;27.456;2022-07-10T04:29:14;10.43;;;5.22;;
50249;SDS011;36133;42.522;27.456;2022-07-10T04:31:40;7.95;;;5.45;;
50249;SDS011;36133;42.522;27.456;2022-07-10T04:34:05;10.60;;;5.88;;
50249;SDS011;36133;42.522;27.456;2022-07-10T04:36:31;6.90;;;5.50;;
50249;SDS011;36133;42.522;27.456;2022-07-10T04:38:56;6.20;;;5.07;;
50249;SDS011;36133;42.522;27.456;2022-07-10T04:41:22;11.80;;;5.07;;
50249;SDS011;36133;42.522;27.456;2022-07-10T04:43:47;8.45;;;4.78;;
50249;SDS011;36133;42.522;27.456;2022-07-10T04:46:13;11.00;;;4.82;;
50249;SDS011;36133;42.522;27.456;2022-07-10T04:48:39;9.63;;;5.05;;
50249;SDS011;36133;42.522;27.456;2022-07-10T04:51:04;7.70;;;4.28;;
50249;SDS011;36133;42.522;27.456;2022-07-10T04:53:30;6.80;;;3.95;;
50249;SDS011;36133;42.522;27.456;2022-07-10T04:55:55;6.13;;;4.70;;
50249;SDS011;36133;42.522;27.456;2022-07-10T04:58:21;6.60;;;4.70;;
50249;SDS011;36133;42.522;27.456;2022-07-10T05:00:46;9.68;;;4.55;;
50249;SDS011;36133;42.522;27.456;2022-07-10T05:03:12;9.40;;;4.85;;
50249;SDS011;36133;42.522;27.456;2022-07-10T05:05:37;12.25;;;4.70;;
50249;SDS011;36133;42.522;27.456;2022-07-10T05:08:03;9.25;;;4.90;;
50249;SDS011;36133;42.522;27.456;2022-07-10T05:10:29;7.40;;;4.55;;
50249;SDS011;36133;42.522;27.456;2022-07-10T05:12:55;6.35;;;4.63;;
50249;SDS011;36133;42.522;27.456;2022-07-10T05:15:21;6.97;;;4.15;;
50249;SDS011;36133;42.522;27.456;2022-07-10T05:17:46;17.42;;;4.90;;
50249;SDS011;36133;42.522;27.456;2022-07-10T05:20:12;9.02;;;5.20;;
50249;SDS011;36133;42.522;27.456;2022-07-10T05:22:37;8.02;;;5.07;;
50249;SDS011;36133;42.522;27.456;2022-07-10T05:25:03;6.43;;;4.38;;
50249;SDS011;36133;42.522;27.456;2022-07-10T05:27:29;6.25;;;4.43;;
50249;SDS011;36133;42.522;27.456;2022-07-10T05:29:54;7.63;;;4.45;;
50249;SDS011;36133;42.522;27.456;2022-07-10T05:32:20;8.88;;;4.50;;
50249;SDS011;36133;42.522;27.456;2022-07-10T05:34:46;6.53;;;4.20;;
50249;SDS011;36133;42.522;27.456;2022-07-10T05:37:11;7.10;;;4.50;;
50249;SDS011;36133;42.522;27.456;2022-07-10T05:39:37;6.93;;;4.40;;
50249;SDS011;36133;42.522;27.456;2022-07-10T05:42:03;6.20;;;4.20;;
50249;SDS011;36133;42.522;27.456;2022-07-10T05:44:28;10.07;;;4.93;;
50249;SDS011;36133;42.522;27.456;2022-07-10T05:46:54;5.53;;;4.40;;
50249;SDS011;36133;42.522;27.456;2022-07-10T05:49:21;8.98;;;4.70;;
50249;SDS011;36133;42.522;27.456;2022-07-10T05:51:46;9.23;;;4.20;;
50249;SDS011;36133;42.522;27.456;2022-07-10T05:54:12;5.25;;;4.38;;
50249;SDS011;36133;42.522;27.456;2022-07-10T05:56:37;7.93;;;4.45;;
50249;SDS011;36133;42.522;27.456;2022-07-10T05:59:03;4.80;;;4.03;;
50249;SDS011;36133;42.522;27.456;2022-07-10T06:01:29;6.78;;;4.78;;
50249;SDS011;36133;42.522;27.456;2022-07-10T06:03:54;9.63;;;4.20;;
50249;SDS011;36133;42.522;27.456;2022-07-10T06:06:21;8.70;;;4.40;;
50249;SDS011;36133;42.522;27.456;2022-07-10T06:08:46;10.02;;;4.25;;
50249;SDS011;36133;42.522;27.456;2022-07-10T06:11:12;7.32;;;4.57;;
50249;SDS011;36133;42.522;27.456;2022-07-10T06:13:38;6.10;;;4.18;;
50249;SDS011;36133;42.522;27.456;2022-07-10T06:16:04;8.82;;;4.68;;
50249;SDS011;36133;42.522;27.456;2022-07-10T06:18:30;8.05;;;4.07;;
50249;SDS011;36133;42.522;27.456;2022-07-10T06:20:59;8.30;;;4.15;;
50249;SDS011;36133;42.522;27.456;2022-07-10T06:23:34;6.00;;;4.60;;
50249;SDS011;36133;42.522;27.456;2022-07-10T06:26:00;6.80;;;4.43;;
50249;SDS011;36133;42.522;27.456;2022-07-10T06:28:35;13.55;;;4.20;;
50249;SDS011;36133;42.522;27.456;2022-07-10T06:31:09;9.55;;;3.80;;
50249;SDS011;36133;42.522;27.456;2022-07-10T06:33:35;3.72;;;3.42;;
50249;SDS011;36133;42.522;27.456;2022-07-10T06:36:04;4.82;;;3.88;;
50249;SDS011;36133;42.522;27.456;2022-07-10T06:38:30;6.32;;;4.03;;
50249;SDS011;36133;42.522;27.456;2022-07-10T06:40:58;6.80;;;3.85;;
50249;SDS011;36133;42.522;27.456;2022-07-10T06:43:24;5.70;;;3.70;;
50249;SDS011;36133;42.522;27.456;2022-07-10T06:45:50;9.07;;;4.28;;
50249;SDS011;36133;42.522;27.456;2022-07-10T06:48:16;6.90;;;4.15;;
50249;SDS011;36133;42.522;27.456;2022-07-10T06:50:42;5.75;;;3.80;;
50249;SDS011;36133;42.522;27.456;2022-07-10T06:53:08;5.38;;;3.85;;
50249;SDS011;36133;42.522;27.456;2022-07-10T06:55:33;4.97;;;3.95;;
50249;SDS011;36133;42.522;27.456;2022-07-10T06:58:00;5.70;;;3.55;;
50249;SDS011;36133;42.522;27.456;2022-07-10T07:00:29;4.88;;;3.80;;
50249;SDS011;36133;42.522;27.456;2022-07-10T07:02:54;8.32;;;3.67;;
50249;SDS011;36133;42.522;27.456;2022-07-10T07:05:26;5.68;;;4.10;;
50249;SDS011;36133;42.522;27.456;2022-07-10T07:07:52;5.95;;;3.97;;
50249;SDS011;36133;42.522;27.456;2022-07-10T07:10:18;6.90;;;3.30;;
50249;SDS011;36133;42.522;27.456;2022-07-10T07:12:43;5.93;;;3.70;;
50249;SDS011;36133;42.522;27.456;2022-07-10T07:15:09;4.55;;;3.67;;
50249;SDS011;36133;42.522;27.456;2022-07-10T07:17:43;7.22;;;3.83;;
50249;SDS011;36133;42.522;27.456;2022-07-10T07:20:28;7.78;;;3.42;;
50249;SDS011;36133;42.522;27.456;2022-07-10T07:23:12;4.43;;;3.20;;
50249;SDS011;36133;42.522;27.456;2022-07-10T07:25:40;7.80;;;3.40;;
50249;SDS011;36133;42.522;27.456;2022-07-10T07:28:12;6.93;;;3.70;;
50249;SDS011;36133;42.522;27.456;2022-07-10T07:30:40;4.57;;;3.28;;
50249;SDS011;36133;42.522;27.456;2022-07-10T07:33:06;5.28;;;3.13;;
50249;SDS011;36133;42.522;27.456;2022-07-10T07:35:32;7.80;;;3.22;;
50249;SDS011;36133;42.522;27.456;2022-07-10T07:38:00;7.63;;;3.35;;
50249;SDS011;36133;42.522;27.456;2022-07-10T07:40:36;3.50;;;3.03;;
50249;SDS011;36133;42.522;27.456;2022-07-10T07:43:05;7.45;;;3.20;;
50249;SDS011;36133;42.522;27.456;2022-07-10T07:45:33;7.32;;;3.15;;
50249;SDS011;36133;42.522;27.456;2022-07-10T07:48:20;5.38;;;3.15;;
50249;SDS011;36133;42.522;27.456;2022-07-10T07:50:46;6.00;;;3.20;;
50249;SDS011;36133;42.522;27.456;2022-07-10T07:53:11;9.65;;;3.38;;
50249;SDS011;36133;42.522;27.456;2022-07-10T07:55:40;8.07;;;2.95;;
50249;SDS011;36133;42.522;27.456;2022-07-10T07:58:06;4.97;;;2.80;;
50249;SDS011;36133;42.522;27.456;2022-07-10T08:00:32;5.38;;;3.00;;
50249;SDS011;36133;42.522;27.456;2022-07-10T08:03:00;6.35;;;3.10;;
50249;SDS011;36133;42.522;27.456;2022-07-10T08:05:29;7.13;;;3.05;;
50249;SDS011;36133;42.522;27.456;2022-07-10T08:07:55;6.47;;;3.25;;
50249;SDS011;36133;42.522;27.456;2022-07-10T08:10:27;8.82;;;3.30;;
50249;SDS011;36133;42.522;27.456;2022-07-10T08:12:53;5.30;;;3.40;;
50249;SDS011;36133;42.522;27.456;2022-07-10T08:15:20;4.68;;;3.30;;
50249;SDS011;36133;42.522;27.456;2022-07-10T08:17:51;4.60;;;3.28;;
50249;SDS011;36133;42.522;27.456;2022-07-10T08:20:21;4.83;;;2.73;;
50249;SDS011;36133;42.522;27.456;2022-07-10T08:22:48;6.32;;;2.65;;
50249;SDS011;36133;42.522;27.456;2022-07-10T08:25:14;4.30;;;2.92;;
50249;SDS011;36133;42.522;27.456;2022-07-10T08:27:43;5.82;;;2.83;;
50249;SDS011;36133;42.522;27.456;2022-07-10T08:30:09;4.70;;;2.90;;
50249;SDS011;36133;42.522;27.456;2022-07-10T08:32:35;8.20;;;2.95;;
50249;SDS011;36133;42.522;27.456;2022-07-10T08:35:05;6.15;;;2.92;;
50249;SDS011;36133;42.522;27.456;2022-07-10T08:37:42;4.68;;;3.17;;
50249;SDS011;36133;42.522;27.456;2022-07-10T08:40:10;7.40;;;2.83;;
50249;SDS011;36133;42.522;27.456;2022-07-10T08:42:41;6.22;;;3.55;;
50249;SDS011;36133;42.522;27.456;2022-07-10T08:45:09;4.47;;;2.80;;
50249;SDS011;36133;42.522;27.456;2022-07-10T08:50:17;4.72;;;2.75;;
50249;SDS011;36133;42.522;27.456;2022-07-10T08:55:29;5.13;;;3.03;;
50249;SDS011;36133;42.522;27.456;2022-07-10T08:57:57;4.30;;;2.78;;
50249;SDS011;36133;42.522;27.456;2022-07-10T09:00:24;5.30;;;2.58;;
50249;SDS011;36133;42.522;27.456;2022-07-10T09:02:49;4.15;;;3.10;;
50249;SDS011;36133;42.522;27.456;2022-07-10T09:05:15;8.38;;;2.92;;
50249;SDS011;36133;42.522;27.456;2022-07-10T09:07:44;6.40;;;3.25;;
50249;SDS011;36133;42.522;27.456;2022-07-10T09:10:10;10.60;;;3.17;;
50249;SDS011;36133;42.522;27.456;2022-07-10T09:12:53;6.20;;;2.83;;
50249;SDS011;36133;42.522;27.456;2022-07-10T09:15:24;5.40;;;2.88;;
50249;SDS011;36133;42.522;27.456;2022-07-10T09:20:48;4.82;;;2.88;;
50249;SDS011;36133;42.522;27.456;2022-07-10T09:23:26;4.35;;;2.70;;
50249;SDS011;36133;42.522;27.456;2022-07-10T09:25:52;5.70;;;2.53;;
50249;SDS011;36133;42.522;27.456;2022-07-10T09:28:19;4.13;;;2.50;;
50249;SDS011;36133;42.522;27.456;2022-07-10T09:30:46;3.13;;;2.47;;
50249;SDS011;36133;42.522;27.456;2022-07-10T09:33:22;6.07;;;2.78;;
50249;SDS011;36133;42.522;27.456;2022-07-10T09:36:01;4.25;;;2.50;;
50249;SDS011;36133;42.522;27.456;2022-07-10T09:41:30;7.18;;;2.72;;
50249;SDS011;36133;42.522;27.456;2022-07-10T09:46:31;7.13;;;2.42;;
50249;SDS011;36133;42.522;27.456;2022-07-10T09:49:01;3.50;;;2.58;;
50249;SDS011;36133;42.522;27.456;2022-07-10T09:51:31;3.90;;;2.40;;
50249;SDS011;36133;42.522;27.456;2022-07-10T09:53:59;5.75;;;2.38;;
50249;SDS011;36133;42.522;27.456;2022-07-10T09:56:26;4.05;;;2.50;;
50249;SDS011;36133;42.522;27.456;2022-07-10T09:58:58;3.45;;;2.20;;
50249;SDS011;36133;42.522;27.456;2022-07-10T10:01:34;5.85;;;2.55;;
50249;SDS011;36133;42.522;27.456;2022-07-10T10:04:10;3.25;;;2.00;;
50249;SDS011;36133;42.522;27.456;2022-07-10T10:06:39;2.28;;;2.05;;
50249;SDS011;36133;42.522;27.456;2022-07-10T10:09:19;2.50;;;2.17;;
50249;SDS011;36133;42.522;27.456;2022-07-10T10:11:59;4.73;;;2.30;;
50249;SDS011;36133;42.522;27.456;2022-07-10T10:14:30;3.92;;;2.40;;
50249;SDS011;36133;42.522;27.456;2022-07-10T10:17:03;4.57;;;2.13;;
50249;SDS011;36133;42.522;27.456;2022-07-10T10:19:30;6.05;;;2.17;;
50249;SDS011;36133;42.522;27.456;2022-07-10T10:22:16;9.00;;;2.30;;
50249;SDS011;36133;42.522;27.456;2022-07-10T10:24:44;2.78;;;2.35;;
50249;SDS011;36133;42.522;27.456;2022-07-10T10:27:13;3.08;;;2.35;;
50249;SDS011;36133;42.522;27.456;2022-07-10T10:29:40;4.60;;;2.20;;
50249;SDS011;36133;42.522;27.456;2022-07-10T10:32:09;3.45;;;2.38;;
50249;SDS011;36133;42.522;27.456;2022-07-10T10:34:44;5.55;;;2.47;;
50249;SDS011;36133;42.522;27.456;2022-07-10T10:40:01;4.15;;;2.33;;
50249;SDS011;36133;42.522;27.456;2022-07-10T10:48:06;3.20;;;2.28;;
50249;SDS011;36133;42.522;27.456;2022-07-10T10:50:50;5.88;;;2.63;;
50249;SDS011;36133;42.522;27.456;2022-07-10T11:15:34;5.05;;;3.05;;
50249;SDS011;36133;42.522;27.456;2022-07-10T11:18:09;11.88;;;2.58;;
50249;SDS011;36133;42.522;27.456;2022-07-10T11:20:38;3.50;;;2.28;;
50249;SDS011;36133;42.522;27.456;2022-07-10T11:26:23;2.70;;;2.10;;
50249;SDS011;36133;42.522;27.456;2022-07-10T11:28:59;3.38;;;2.20;;
50249;SDS011;36133;42.522;27.456;2022-07-10T11:31:31;4.78;;;1.92;;
50249;SDS011;36133;42.522;27.456;2022-07-10T11:34:06;4.00;;;2.28;;
50249;SDS011;36133;42.522;27.456;2022-07-10T11:36:38;4.47;;;2.10;;
50249;SDS011;36133;42.522;27.456;2022-07-10T11:39:14;2.65;;;2.00;;
50249;SDS011;36133;42.522;27.456;2022-07-10T11:41:43;4.25;;;2.13;;
50249;SDS011;36133;42.522;27.456;2022-07-10T11:44:17;4.82;;;2.20;;
50249;SDS011;36133;42.522;27.456;2022-07-10T11:46:45;5.20;;;2.03;;
50249;SDS011;36133;42.522;27.456;2022-07-10T11:49:14;3.03;;;1.85;;
50249;SDS011;36133;42.522;27.456;2022-07-10T11:51:42;2.92;;;2.15;;
50249;SDS011;36133;42.522;27.456;2022-07-10T11:54:12;3.70;;;1.88;;
50249;SDS011;36133;42.522;27.456;2022-07-10T11:56:45;3.05;;;1.92;;
50249;SDS011;36133;42.522;27.456;2022-07-10T11:59:13;2.13;;;1.77;;
50249;SDS011;36133;42.522;27.456;2022-07-10T12:01:47;3.95;;;2.00;;
50249;SDS011;36133;42.522;27.456;2022-07-10T12:04:14;2.30;;;2.10;;
50249;SDS011;36133;42.522;27.456;2022-07-10T12:06:48;3.25;;;2.13;;
50249;SDS011;36133;42.522;27.456;2022-07-10T12:09:17;3.92;;;2.20;;
50249;SDS011;36133;42.522;27.456;2022-07-10T12:11:57;2.83;;;2.10;;
50249;SDS011;36133;42.522;27.456;2022-07-10T12:16:56;4.68;;;2.45;;
50249;SDS011;36133;42.522;27.456;2022-07-10T12:19:23;8.25;;;2.25;;
50249;SDS011;36133;42.522;27.456;2022-07-10T12:21:52;3.30;;;2.08;;
50249;SDS011;36133;42.522;27.456;2022-07-10T12:24:19;3.38;;;2.10;;
50249;SDS011;36133;42.522;27.456;2022-07-10T12:26:45;3.53;;;2.30;;
50249;SDS011;36133;42.522;27.456;2022-07-10T12:29:18;4.13;;;2.20;;
50249;SDS011;36133;42.522;27.456;2022-07-10T12:31:54;3.67;;;2.50;;
50249;SDS011;36133;42.522;27.456;2022-07-10T12:34:34;8.23;;;2.40;;
50249;SDS011;36133;42.522;27.456;2022-07-10T12:37:12;3.33;;;2.20;;
50249;SDS011;36133;42.522;27.456;2022-07-10T12:39:46;3.08;;;1.90;;
50249;SDS011;36133;42.522;27.456;2022-07-10T12:42:25;7.95;;;2.60;;
50249;SDS011;36133;42.522;27.456;2022-07-10T12:44:51;9.38;;;2.60;;
50249;SDS011;36133;42.522;27.456;2022-07-10T12:47:20;3.55;;;2.40;;
50249;SDS011;36133;42.522;27.456;2022-07-10T12:52:22;3.72;;;2.50;;
50249;SDS011;36133;42.522;27.456;2022-07-10T13:00:47;8.00;;;3.20;;
50249;SDS011;36133;42.522;27.456;2022-07-10T13:03:18;4.53;;;2.60;;
50249;SDS011;36133;42.522;27.456;2022-07-10T13:05:47;6.22;;;3.00;;
50249;SDS011;36133;42.522;27.456;2022-07-10T13:08:22;5.03;;;2.80;;
50249;SDS011;36133;42.522;27.456;2022-07-10T13:11:04;6.15;;;2.63;;
50249;SDS011;36133;42.522;27.456;2022-07-10T13:13:30;4.25;;;2.63;;
50249;SDS011;36133;42.522;27.456;2022-07-10T13:15:56;6.63;;;2.70;;
50249;SDS011;36133;42.522;27.456;2022-07-10T13:18:26;5.47;;;3.05;;
50249;SDS011;36133;42.522;27.456;2022-07-10T13:20:53;5.38;;;2.83;;
50249;SDS011;36133;42.522;27.456;2022-07-10T13:23:20;6.25;;;2.80;;
50249;SDS011;36133;42.522;27.456;2022-07-10T13:25:54;6.13;;;2.80;;
50249;SDS011;36133;42.522;27.456;2022-07-10T13:28:31;8.35;;;2.63;;
50249;SDS011;36133;42.522;27.456;2022-07-10T13:30:56;4.38;;;2.70;;
50249;SDS011;36133;42.522;27.456;2022-07-10T13:33:25;6.70;;;3.10;;
50249;SDS011;36133;42.522;27.456;2022-07-10T13:35:53;6.20;;;2.35;;
50249;SDS011;36133;42.522;27.456;2022-07-10T13:38:19;6.13;;;2.50;;
50249;SDS011;36133;42.522;27.456;2022-07-10T13:40:48;6.55;;;2.28;;
50249;SDS011;36133;42.522;27.456;2022-07-10T13:43:14;5.55;;;2.72;;
50249;SDS011;36133;42.522;27.456;2022-07-10T13:45:42;7.53;;;2.28;;
50249;SDS011;36133;42.522;27.456;2022-07-10T13:48:09;5.00;;;2.67;;
50249;SDS011;36133;42.522;27.456;2022-07-10T13:50:56;3.47;;;2.10;;
50249;SDS011;36133;42.522;27.456;2022-07-10T13:53:22;5.68;;;2.38;;
50249;SDS011;36133;42.522;27.456;2022-07-10T13:55:48;3.50;;;2.50;;
50249;SDS011;36133;42.522;27.456;2022-07-10T13:58:14;10.02;;;2.70;;
50249;SDS011;36133;42.522;27.456;2022-07-10T14:00:40;6.95;;;3.08;;
50249;SDS011;36133;42.522;27.456;2022-07-10T14:03:06;4.63;;;2.70;;
50249;SDS011;36133;42.522;27.456;2022-07-10T14:05:35;6.63;;;3.00;;
50249;SDS011;36133;42.522;27.456;2022-07-10T14:08:01;5.93;;;2.70;;
50249;SDS011;36133;42.522;27.456;2022-07-10T14:10:27;4.47;;;2.47;;
50249;SDS011;36133;42.522;27.456;2022-07-10T14:12:53;3.53;;;2.28;;
50249;SDS011;36133;42.522;27.456;2022-07-10T14:15:19;11.02;;;2.42;;
50249;SDS011;36133;42.522;27.456;2022-07-10T14:17:45;8.73;;;2.47;;
50249;SDS011;36133;42.522;27.456;2022-07-10T14:20:11;6.03;;;2.28;;
50249;SDS011;36133;42.522;27.456;2022-07-10T14:22:40;8.38;;;2.42;;
50249;SDS011;36133;42.522;27.456;2022-07-10T14:25:05;4.65;;;2.13;;
50249;SDS011;36133;42.522;27.456;2022-07-10T14:27:33;3.53;;;2.42;;
50249;SDS011;36133;42.522;27.456;2022-07-10T14:29:59;4.90;;;2.88;;
50249;SDS011;36133;42.522;27.456;2022-07-10T14:32:45;6.05;;;2.28;;
50249;SDS011;36133;42.522;27.456;2022-07-10T14:35:11;5.90;;;2.65;;
50249;SDS011;36133;42.522;27.456;2022-07-10T14:37:39;8.55;;;2.15;;
50249;SDS011;36133;42.522;27.456;2022-07-10T14:40:50;3.03;;;2.40;;
50249;SDS011;36133;42.522;27.456;2022-07-10T14:43:49;3.10;;;2.00;;
50249;SDS011;36133;42.522;27.456;2022-07-10T14:46:46;2.58;;;2.05;;
50249;SDS011;36133;42.522;27.456;2022-07-10T14:49:29;6.65;;;2.80;;
50249;SDS011;36133;42.522;27.456;2022-07-10T14:54:47;3.97;;;2.00;;
50249;SDS011;36133;42.522;27.456;2022-07-10T14:57:36;3.20;;;2.10;;
50249;SDS011;36133;42.522;27.456;2022-07-10T15:00:05;6.32;;;2.10;;
50249;SDS011;36133;42.522;27.456;2022-07-10T15:02:31;2.97;;;2.00;;
50249;SDS011;36133;42.522;27.456;2022-07-10T15:11:38;8.32;;;2.28;;
50249;SDS011;36133;42.522;27.456;2022-07-10T15:14:07;6.28;;;2.05;;
50249;SDS011;36133;42.522;27.456;2022-07-10T15:16:49;4.43;;;2.58;;
50249;SDS011;36133;42.522;27.456;2022-07-10T15:19:17;4.18;;;2.28;;
50249;SDS011;36133;42.522;27.456;2022-07-10T15:21:54;4.25;;;2.13;;
50249;SDS011;36133;42.522;27.456;2022-07-10T15:27:44;3.45;;;2.05;;
50249;SDS011;36133;42.522;27.456;2022-07-10T15:30:14;6.30;;;2.13;;
50249;SDS011;36133;42.522;27.456;2022-07-10T15:33:26;3.60;;;1.90;;
50249;SDS011;36133;42.522;27.456;2022-07-10T15:36:39;5.25;;;2.10;;
50249;SDS011;36133;42.522;27.456;2022-07-10T15:41:52;5.47;;;2.97;;
50249;SDS011;36133;42.522;27.456;2022-07-10T15:44:36;4.82;;;2.20;;
50249;SDS011;36133;42.522;27.456;2022-07-10T15:47:13;7.88;;;2.40;;
50249;SDS011;36133;42.522;27.456;2022-07-10T15:49:48;4.38;;;2.40;;
50249;SDS011;36133;42.522;27.456;2022-07-10T15:52:17;5.55;;;2.50;;
50249;SDS011;36133;42.522;27.456;2022-07-10T15:57:52;7.43;;;3.20;;
50249;SDS011;36133;42.522;27.456;2022-07-10T16:00:18;7.43;;;2.25;;
50249;SDS011;36133;42.522;27.456;2022-07-10T16:02:43;3.25;;;2.50;;